In Rescue
 
Open Full Screen Window  High Contrast Mode
Wind Gusting 16 knots
13
April 19, 2021 8:49 PM CDT
Weather Information
Wind Direction
  340 °
Wind Speed
  13 kt (15 mph)
Wind Gust
  16 kt (18 mph)
Altimeter
30.13 in
Visibility
10 SM
Temperature
00° C
32° F
Dewpoint
-13° C
F
Humidity
37%
1hr Rain Fall
00.00 in.
24hr Rain Fall
00.00 in.
Sky Condition
Scattered @ 6,500 ft
VFR

METAR KMOX 200149Z AUTO 34013G16KT 10SM SCT065 00/M13 A3013 RMK AO2

FAA Disclaimer: The data displayed is for advisory purposes only and is not to be used for flight planning or operations.